Sumar, Netherlands
Current Conditions -  °F | °C
As of 8:42 AM on Thursday 23 Oct 2014 (Local Time) from EHLW Reporting Station
Light Rain Light Rain  
Wind Chill: 52°   Ceiling: 2500
Heat Index: 52°   Visibility: 6mi
Dew Point: 52°   Wind: 6mph
Humidity: 100%   Direction: 190°S
Pressure: 30.09"   Gusts: NA
Location:  53.18°N, 6°E
Report Text: EHLW 230642Z AUTO 19005KT 9000 -DZRA SCT022 OVC025 11/11 Q1019 REDZ WHT 21007KT 9999 BKN020
Loading
Personal Weather Stations






























Interactive Weather Map
Tropical Storm Tracking
New forecast layout! Learn more

10-Day Weather Forecast

Advertisements
Track Severe Weather on mobile